Hauptseite
METAR-TAF:

METAR-TAF

Flughäfen :

Khartum, Sudan

Flughafen Khartum

Breite: 15-36N, Länge: 032-33E, Höhe: 382 m

Beobachtung

Neuester Wetterbericht von vor 11 Minuten, um 14:30 UTC
Wind 5 kt aus Südwest
Temperatur 39°C
Luftfeuchtigkeit 23%
Luftdruck 1008 hPa

METAR: HSSS 221430Z 22005KT 9999FEW 050 39/14 Q1008 NOSIG

Zeit: 17:41 (14:41 UTC)

Prognose

Neuester Wetterbericht von vor 3 Stunden und 41 Minuten, um 11:00 UTC
Gültige Prognose vom 22 um 12 UTC bis 23 um 18 UTC
Wind 10 kt aus Süd, Böen bis zu 20 kt
Sichtweite 10 km oder mehr
Leicht bewölkt in der Höhe von 4000 ft
Aufgelockert bewölkt in der Höhe von 14000 ft
Wahrscheinlichkeit 30%
vom 22 um 22 UTC bis 23 um 02 UTC
Sichtweite: 5000 m
Leicht bewölkt in der Höhe von 4500 ft, Kumulonimbus.
Gewitter, Regen

TAF: HSSS 221100Z 2212/2318 18010G20KT 9999 FEW040 SCT140 PROB30 2222/2302 5000 TSRA FEW045CB

Wetterbeobachtungen und Prognosen von mehr als 4000 Flughäfen (METAR und TAF Bericht).

Die verfügbaren Stationen werden durch gelbe und rote Markierungen auf der Karte dargestellt.

Führen Sie die Maus auf sie, um den Namen der Station zu sehen.

Darauf klicken, um die Beobachtung von Wetterbeobachtungen und Prognosen zu sehen.

Um die Karte zu ändern : klicken Sie auf den grünen Tasten mit einem schwarzen Kreuz Zum Vergrößern, auf den grünen Button mit einem Gedankenstrich zu verkleinern, oder auf die grünen Pfeile für benachbarte Karten.


METAR-TAF: